createdAt,value
2023-01-29T00:01:16.527Z,11.44
2023-01-29T00:03:47.092Z,11.05
2023-01-29T00:06:19.339Z,11.97
2023-01-29T00:08:49.845Z,12.12
2023-01-29T00:11:22.019Z,11.13
2023-01-29T00:13:53.047Z,10.53
2023-01-29T00:16:24.513Z,11.30
2023-01-29T00:18:58.072Z,12.03
2023-01-29T00:21:30.242Z,11.30
2023-01-29T00:24:01.381Z,11.43
2023-01-29T00:26:32.590Z,11.89
2023-01-29T00:29:03.248Z,11.30
2023-01-29T00:31:33.871Z,11.36
2023-01-29T00:34:05.286Z,11.22
2023-01-29T00:36:36.936Z,10.38
2023-01-29T00:39:09.165Z,10.88
2023-01-29T00:41:58.049Z,10.74
2023-01-29T00:44:46.656Z,10.05
2023-01-29T00:47:34.202Z,10.56
2023-01-29T00:50:07.869Z,10.57
2023-01-29T00:52:41.160Z,10.54
2023-01-29T00:55:12.695Z,10.70
2023-01-29T00:57:43.285Z,10.62
2023-01-29T01:00:17.174Z,11.46
2023-01-29T01:03:05.614Z,11.12
2023-01-29T01:05:39.390Z,11.71
2023-01-29T01:08:12.056Z,11.14
2023-01-29T01:10:42.732Z,10.76
2023-01-29T01:13:14.372Z,11.47
2023-01-29T01:15:44.951Z,11.52
2023-01-29T01:18:16.399Z,11.60
2023-01-29T01:20:48.539Z,11.68
2023-01-29T01:23:20.689Z,11.23
2023-01-29T01:25:51.282Z,11.14
2023-01-29T01:28:23.517Z,11.22
2023-01-29T01:30:55.557Z,10.81
2023-01-29T01:33:26.299Z,10.60
2023-01-29T01:35:56.887Z,10.91
2023-01-29T01:38:27.720Z,10.36
2023-01-29T01:40:58.249Z,10.86
2023-01-29T01:43:28.901Z,11.96
2023-01-29T01:45:59.533Z,11.55
2023-01-29T01:48:30.514Z,11.07
2023-01-29T01:51:05.295Z,10.32
2023-01-29T01:53:44.920Z,10.49
2023-01-29T01:56:21.132Z,11.17
2023-01-29T01:58:57.586Z,10.83
2023-01-29T02:01:30.572Z,11.02
2023-01-29T02:04:25.163Z,11.98
2023-01-29T02:07:17.427Z,10.81
2023-01-29T02:10:08.839Z,11.07
2023-01-29T02:12:41.705Z,12.07
2023-01-29T02:15:13.975Z,11.77
2023-01-29T02:17:46.096Z,11.29
2023-01-29T02:20:25.876Z,9.81
2023-01-29T02:23:11.395Z,11.11
2023-01-29T02:26:04.620Z,11.41
2023-01-29T02:28:43.950Z,11.65
2023-01-29T02:31:26.529Z,10.55
2023-01-29T02:34:12.053Z,10.67
2023-01-29T02:36:54.960Z,11.31
2023-01-29T02:39:28.336Z,10.99
2023-01-29T02:42:01.823Z,11.36
2023-01-29T02:44:44.039Z,11.55
2023-01-29T02:47:44.762Z,11.14
2023-01-29T02:50:18.558Z,9.90
2023-01-29T02:53:01.102Z,9.54
2023-01-29T02:55:43.174Z,10.19
2023-01-29T02:58:16.625Z,11.61
2023-01-29T03:00:49.475Z,11.03
2023-01-29T03:03:22.963Z,10.77
2023-01-29T03:06:04.922Z,11.45
2023-01-29T03:08:45.775Z,11.56
2023-01-29T03:11:18.532Z,11.28
2023-01-29T03:14:00.549Z,10.86
2023-01-29T03:16:43.182Z,10.41
2023-01-29T03:19:22.219Z,11.42
2023-01-29T03:22:01.971Z,11.01
2023-01-29T03:25:12.932Z,10.76
2023-01-29T03:28:06.973Z,10.26
2023-01-29T03:30:58.026Z,9.98
2023-01-29T03:33:32.386Z,10.86
2023-01-29T03:36:06.027Z,11.08
2023-01-29T03:38:36.519Z,10.10
2023-01-29T03:41:12.739Z,11.06
2023-01-29T03:43:58.204Z,10.43
2023-01-29T03:46:40.843Z,10.76
2023-01-29T03:49:35.374Z,11.11
2023-01-29T03:52:20.691Z,11.82
2023-01-29T03:55:16.934Z,10.96
2023-01-29T03:58:06.876Z,11.69
2023-01-29T04:00:48.915Z,10.68
2023-01-29T04:03:37.378Z,10.89
2023-01-29T04:06:16.514Z,11.00
2023-01-29T04:08:49.846Z,9.79
2023-01-29T04:11:22.300Z,10.17
2023-01-29T04:13:54.998Z,10.50
2023-01-29T04:16:36.964Z,10.28
2023-01-29T04:19:07.926Z,9.28
2023-01-29T04:21:38.525Z,10.07
2023-01-29T04:24:10.538Z,11.24
2023-01-29T04:26:49.648Z,10.03
2023-01-29T04:29:41.135Z,9.74
2023-01-29T04:32:14.517Z,10.72
2023-01-29T04:34:56.835Z,10.16
2023-01-29T04:37:35.743Z,10.41
2023-01-29T04:40:12.305Z,11.51
2023-01-29T04:42:51.476Z,10.74
2023-01-29T04:45:31.108Z,11.12
2023-01-29T04:48:22.739Z,9.55
2023-01-29T04:51:12.495Z,11.05
2023-01-29T04:53:45.878Z,11.35
2023-01-29T04:56:19.371Z,11.94
2023-01-29T04:58:52.726Z,11.55
2023-01-29T05:01:26.485Z,11.55
2023-01-29T05:03:59.506Z,11.67
2023-01-29T05:06:32.949Z,11.09
2023-01-29T05:09:04.691Z,10.99
2023-01-29T05:11:36.735Z,10.34
2023-01-29T05:14:10.043Z,12.01
2023-01-29T05:16:43.485Z,11.66
2023-01-29T05:19:16.362Z,11.72
2023-01-29T05:21:49.295Z,11.41
2023-01-29T05:24:25.728Z,11.00
2023-01-29T05:27:14.373Z,11.32
2023-01-29T05:29:48.275Z,10.61
2023-01-29T05:32:18.758Z,12.09
2023-01-29T05:34:49.202Z,11.45
2023-01-29T05:37:19.642Z,11.71
2023-01-29T05:39:50.193Z,10.80
2023-01-29T05:42:21.974Z,11.93
2023-01-29T05:44:52.756Z,11.23
2023-01-29T05:47:24.398Z,11.62
2023-01-29T05:49:54.853Z,11.78
2023-01-29T05:52:25.306Z,10.72
2023-01-29T05:54:55.799Z,11.52
2023-01-29T05:57:26.276Z,11.07
2023-01-29T05:59:56.781Z,10.42
2023-01-29T06:02:27.254Z,10.22
2023-01-29T06:04:57.841Z,10.28
2023-01-29T06:07:28.413Z,11.29
2023-01-29T06:09:58.987Z,11.78
2023-01-29T06:12:29.794Z,11.87
2023-01-29T06:15:00.399Z,10.48
2023-01-29T06:17:31.048Z,10.04
2023-01-29T06:20:02.007Z,11.00
2023-01-29T06:22:33.876Z,11.64
2023-01-29T06:25:05.025Z,11.25
2023-01-29T06:27:35.506Z,10.63
2023-01-29T06:30:07.833Z,11.79
2023-01-29T06:32:38.383Z,11.36
2023-01-29T06:35:10.684Z,11.85
2023-01-29T06:37:41.552Z,12.02
2023-01-29T06:40:13.172Z,10.99
2023-01-29T06:42:45.921Z,11.77
2023-01-29T06:45:16.728Z,11.69
2023-01-29T06:47:47.201Z,11.25
2023-01-29T06:50:18.349Z,11.05
2023-01-29T06:52:49.210Z,11.42
2023-01-29T06:55:19.794Z,11.19
2023-01-29T06:57:50.355Z,11.89
2023-01-29T07:00:21.224Z,12.11
2023-01-29T07:02:51.932Z,11.63
2023-01-29T07:05:22.541Z,10.81
2023-01-29T07:07:53.097Z,10.87
2023-01-29T07:10:23.616Z,11.24
2023-01-29T07:12:54.165Z,10.69
2023-01-29T07:15:25.981Z,11.74
2023-01-29T07:18:04.751Z,11.53
2023-01-29T07:20:35.300Z,11.64
2023-01-29T07:23:06.176Z,11.39
2023-01-29T07:25:36.685Z,11.90
2023-01-29T07:28:07.658Z,10.95
2023-01-29T07:30:38.308Z,10.84
2023-01-29T07:33:10.773Z,12.21
2023-01-29T07:35:43.293Z,10.93
2023-01-29T07:38:13.841Z,11.65
2023-01-29T07:40:45.151Z,11.94
2023-01-29T07:43:16.528Z,11.33
2023-01-29T07:45:47.064Z,11.53
2023-01-29T07:48:17.647Z,10.42
2023-01-29T07:50:51.018Z,10.96
2023-01-29T07:53:22.799Z,12.44
2023-01-29T07:55:53.598Z,11.76
2023-01-29T07:58:24.373Z,11.98
2023-01-29T08:00:54.860Z,11.79
2023-01-29T08:03:25.364Z,11.55
2023-01-29T08:05:55.782Z,12.11
2023-01-29T08:08:26.545Z,12.56
2023-01-29T08:10:57.210Z,12.30
2023-01-29T08:13:27.720Z,12.33
2023-01-29T08:16:03.817Z,12.63
2023-01-29T08:18:34.276Z,12.98
2023-01-29T08:21:04.951Z,12.40
2023-01-29T08:23:35.415Z,11.95
2023-01-29T08:26:06.119Z,12.51
2023-01-29T08:28:38.902Z,11.60
2023-01-29T08:31:14.746Z,11.05
2023-01-29T08:33:45.322Z,12.05
2023-01-29T08:36:16.360Z,12.02
2023-01-29T08:38:46.931Z,10.93
2023-01-29T08:41:17.585Z,11.21
2023-01-29T08:43:48.141Z,11.76
2023-01-29T08:46:18.738Z,11.29
2023-01-29T08:48:49.339Z,11.00
2023-01-29T08:51:19.870Z,12.22
2023-01-29T08:53:50.760Z,12.28
2023-01-29T08:56:22.193Z,12.30
2023-01-29T08:58:52.783Z,10.15
2023-01-29T09:01:23.426Z,11.60
2023-01-29T09:03:55.171Z,11.13
2023-01-29T09:06:25.826Z,11.39
2023-01-29T09:08:56.537Z,11.07
2023-01-29T09:11:27.205Z,11.75
2023-01-29T09:13:58.940Z,10.88
2023-01-29T09:16:29.530Z,11.10
2023-01-29T09:19:00.160Z,12.95
2023-01-29T09:21:32.032Z,12.02
2023-01-29T09:24:02.607Z,11.73
2023-01-29T09:26:33.261Z,11.26
2023-01-29T09:29:03.860Z,12.28
2023-01-29T09:31:34.512Z,11.05
2023-01-29T09:34:05.285Z,12.40
2023-01-29T09:36:35.860Z,12.38
2023-01-29T09:39:06.448Z,12.03
2023-01-29T09:41:54.835Z,12.73
2023-01-29T09:44:48.107Z,11.62
2023-01-29T09:47:21.062Z,12.28
2023-01-29T09:49:56.456Z,13.13
2023-01-29T09:52:29.899Z,12.34
2023-01-29T09:55:15.844Z,12.66
2023-01-29T09:57:53.080Z,12.53
2023-01-29T10:00:32.825Z,13.08
2023-01-29T10:03:09.192Z,13.44
2023-01-29T10:05:44.020Z,11.71
2023-01-29T10:08:23.996Z,11.32
2023-01-29T10:11:00.489Z,12.15
2023-01-29T10:13:52.263Z,12.42
2023-01-29T10:16:34.476Z,12.83
2023-01-29T10:19:21.560Z,10.82
2023-01-29T10:22:27.845Z,11.88
2023-01-29T10:25:01.427Z,12.28
2023-01-29T10:27:38.679Z,10.85
2023-01-29T10:30:12.184Z,12.24
2023-01-29T10:32:42.859Z,12.65
2023-01-29T10:35:22.251Z,12.08
2023-01-29T10:37:55.593Z,12.16
2023-01-29T10:40:41.103Z,11.70
2023-01-29T10:43:14.937Z,11.45
2023-01-29T10:46:05.116Z,12.28
2023-01-29T10:48:58.048Z,12.29
2023-01-29T10:51:40.477Z,12.63
2023-01-29T10:54:28.994Z,11.35
2023-01-29T10:57:08.518Z,12.30
2023-01-29T10:59:46.423Z,11.87
2023-01-29T11:02:22.818Z,11.21
2023-01-29T11:04:56.485Z,12.06
2023-01-29T11:07:32.336Z,12.70
2023-01-29T11:10:05.852Z,13.10
2023-01-29T11:12:39.097Z,11.52
2023-01-29T11:15:25.014Z,13.11
2023-01-29T11:21:04.634Z,12.53
2023-01-29T11:23:36.115Z,13.29
2023-01-29T11:26:09.486Z,12.46
2023-01-29T11:28:45.531Z,12.62
2023-01-29T11:31:19.940Z,13.19
2023-01-29T11:33:52.660Z,12.01
2023-01-29T11:36:39.878Z,12.06
2023-01-29T11:39:16.717Z,12.64
2023-01-29T11:41:50.167Z,12.07
2023-01-29T11:44:34.263Z,12.28
2023-01-29T11:47:24.451Z,13.16
2023-01-29T11:50:00.045Z,12.12
2023-01-29T11:52:39.284Z,12.56
2023-01-29T11:55:28.337Z,12.55
2023-01-29T11:58:20.012Z,12.73
2023-01-29T12:00:55.606Z,11.19
2023-01-29T12:03:34.965Z,10.86
2023-01-29T12:06:09.472Z,12.50
2023-01-29T12:08:41.586Z,12.47
2023-01-29T12:11:36.229Z,12.17
2023-01-29T12:14:09.772Z,11.38
2023-01-29T12:16:57.830Z,12.37
2023-01-29T12:19:47.431Z,11.34
2023-01-29T12:22:35.776Z,12.06
2023-01-29T12:25:10.457Z,11.86
2023-01-29T12:28:02.488Z,13.09
2023-01-29T12:30:41.888Z,12.40
2023-01-29T12:33:27.734Z,12.30
2023-01-29T12:36:16.824Z,12.28
2023-01-29T12:38:47.604Z,12.28
2023-01-29T12:41:36.416Z,11.56
2023-01-29T12:44:37.249Z,12.28
2023-01-29T12:47:10.752Z,12.14
2023-01-29T12:49:43.227Z,11.92
2023-01-29T12:52:29.024Z,11.00
2023-01-29T12:55:08.544Z,12.88
2023-01-29T12:57:54.942Z,11.86
2023-01-29T13:00:28.590Z,12.99
2023-01-29T13:03:05.432Z,11.02
2023-01-29T13:05:41.781Z,11.39
2023-01-29T13:08:21.177Z,11.07
2023-01-29T13:10:54.767Z,11.58
2023-01-29T13:13:39.064Z,11.76
2023-01-29T13:16:13.343Z,12.21
2023-01-29T13:18:47.102Z,11.92
2023-01-29T13:21:27.612Z,12.14
2023-01-29T13:24:13.156Z,12.64
2023-01-29T13:26:49.210Z,11.76
2023-01-29T13:29:29.058Z,11.70
2023-01-29T13:32:05.673Z,12.19
2023-01-29T13:34:49.509Z,12.14
2023-01-29T13:37:43.204Z,13.12
2023-01-29T13:40:22.647Z,12.46
2023-01-29T13:42:56.556Z,11.93
2023-01-29T13:45:31.077Z,12.85
2023-01-29T13:48:24.238Z,12.44
2023-01-29T13:50:57.046Z,11.96
2023-01-29T13:53:40.055Z,11.75
2023-01-29T13:56:36.126Z,11.70
2023-01-29T13:59:08.175Z,12.56
2023-01-29T14:01:54.950Z,11.98
2023-01-29T14:04:29.475Z,12.47
2023-01-29T14:07:03.340Z,11.94
2023-01-29T14:09:43.488Z,11.80
2023-01-29T14:12:26.637Z,12.50
2023-01-29T14:15:00.181Z,12.91
2023-01-29T14:17:32.040Z,12.28
2023-01-29T14:20:25.791Z,12.00
2023-01-29T14:22:59.831Z,11.22
2023-01-29T14:25:33.371Z,12.01
2023-01-29T14:28:11.887Z,10.89
2023-01-29T14:30:44.437Z,12.01
2023-01-29T14:33:37.178Z,11.75
2023-01-29T14:36:16.237Z,11.98
2023-01-29T14:38:52.661Z,12.62
2023-01-29T14:41:30.093Z,12.71
2023-01-29T14:44:37.590Z,11.77
2023-01-29T14:47:21.831Z,11.90
2023-01-29T14:50:07.105Z,11.85
2023-01-29T14:52:44.519Z,12.31
2023-01-29T14:55:39.089Z,11.66
2023-01-29T14:58:19.342Z,12.89
2023-01-29T15:00:56.869Z,11.69
2023-01-29T15:03:43.629Z,11.18
2023-01-29T15:06:21.341Z,12.68
2023-01-29T15:09:32.712Z,12.39
2023-01-29T15:12:03.039Z,12.37
2023-01-29T15:14:42.443Z,11.93
2023-01-29T15:17:18.900Z,11.85
2023-01-29T15:19:51.522Z,10.89
2023-01-29T15:22:30.502Z,11.75
2023-01-29T15:25:09.146Z,12.18
2023-01-29T15:27:47.265Z,11.89
2023-01-29T15:30:31.009Z,12.12
2023-01-29T15:33:06.715Z,12.25
2023-01-29T15:35:44.608Z,11.96
2023-01-29T15:38:22.259Z,11.57
2023-01-29T15:41:02.515Z,11.95
2023-01-29T15:43:41.844Z,12.28
2023-01-29T15:46:29.146Z,12.40
2023-01-29T15:49:05.635Z,13.12
2023-01-29T15:51:39.790Z,12.69
2023-01-29T15:54:16.847Z,12.42
2023-01-29T15:56:54.467Z,12.35
2023-01-29T15:59:36.060Z,12.15
2023-01-29T16:02:31.184Z,11.43
2023-01-29T16:05:04.208Z,11.85
2023-01-29T16:07:40.207Z,12.75
2023-01-29T16:10:21.019Z,13.05
2023-01-29T16:12:56.844Z,12.11
2023-01-29T16:15:42.494Z,13.00
2023-01-29T16:18:28.246Z,12.90
2023-01-29T16:21:07.643Z,12.80
2023-01-29T16:23:44.800Z,12.94
2023-01-29T16:26:25.916Z,12.61
2023-01-29T16:28:59.583Z,12.70
2023-01-29T16:31:37.521Z,13.45
2023-01-29T16:34:19.326Z,14.22
2023-01-29T16:36:53.506Z,13.50
2023-01-29T16:39:35.082Z,12.67
2023-01-29T16:42:22.074Z,13.39
2023-01-29T16:45:12.234Z,12.01
2023-01-29T16:47:47.125Z,13.53
2023-01-29T16:50:54.268Z,12.62
2023-01-29T16:53:25.384Z,13.58
2023-01-29T16:56:01.905Z,13.24
2023-01-29T16:58:38.368Z,12.62
2023-01-29T17:01:15.664Z,11.50
2023-01-29T17:03:56.896Z,11.19
2023-01-29T17:06:33.916Z,12.62
2023-01-29T17:09:10.485Z,12.25
2023-01-29T17:11:46.694Z,11.71
2023-01-29T17:14:27.959Z,12.12
2023-01-29T17:17:09.972Z,13.11
2023-01-29T17:19:44.182Z,11.84
2023-01-29T17:25:20.109Z,11.79
2023-01-29T17:27:57.309Z,12.03
2023-01-29T17:30:35.084Z,11.73
2023-01-29T17:33:29.934Z,12.12
2023-01-29T17:36:04.504Z,12.25
2023-01-29T17:38:40.769Z,13.04
2023-01-29T17:41:24.402Z,12.55
2023-01-29T17:43:58.881Z,11.94
2023-01-29T17:46:33.854Z,13.04
2023-01-29T17:49:07.649Z,12.64
2023-01-29T17:51:41.520Z,12.52
2023-01-29T17:54:16.863Z,12.02
2023-01-29T17:56:53.562Z,12.06
2023-01-29T17:59:29.697Z,10.66
2023-01-29T18:02:02.360Z,12.37
2023-01-29T18:04:35.283Z,13.77
2023-01-29T18:07:20.317Z,13.30
2023-01-29T18:09:56.217Z,12.84
2023-01-29T18:12:33.143Z,12.68
2023-01-29T18:15:09.315Z,13.46
2023-01-29T18:17:45.416Z,13.64
2023-01-29T18:20:25.831Z,13.66
2023-01-29T18:22:59.279Z,12.92
2023-01-29T18:25:31.696Z,12.74
2023-01-29T18:28:09.640Z,13.64
2023-01-29T18:30:44.698Z,14.30
2023-01-29T18:33:18.525Z,11.71
2023-01-29T18:36:01.870Z,13.58
2023-01-29T18:38:35.669Z,12.39
2023-01-29T18:41:11.989Z,12.78
2023-01-29T18:43:45.273Z,12.84
2023-01-29T18:46:22.102Z,12.39
2023-01-29T18:49:03.661Z,13.55
2023-01-29T18:54:32.905Z,13.93
2023-01-29T18:57:14.041Z,12.95
2023-01-29T18:59:47.677Z,13.10
2023-01-29T19:02:21.252Z,12.86
2023-01-29T19:05:04.589Z,12.59
2023-01-29T19:07:39.108Z,12.19
2023-01-29T19:10:17.973Z,12.83
2023-01-29T19:12:51.917Z,11.98
2023-01-29T19:15:31.707Z,12.46
2023-01-29T19:18:05.571Z,12.65
2023-01-29T19:20:39.547Z,12.47
2023-01-29T19:23:17.778Z,12.68
2023-01-29T19:25:58.709Z,13.16
2023-01-29T19:28:50.264Z,11.73
2023-01-29T19:31:26.759Z,11.55
2023-01-29T19:34:08.305Z,13.03
2023-01-29T19:36:41.099Z,12.40
2023-01-29T19:39:16.720Z,11.64
2023-01-29T19:41:54.345Z,12.12
2023-01-29T19:47:34.606Z,12.41
2023-01-29T19:50:12.213Z,12.26
2023-01-29T19:52:51.633Z,12.87
2023-01-29T19:55:26.064Z,12.38
2023-01-29T19:57:59.725Z,12.03
2023-01-29T20:00:34.752Z,12.56
2023-01-29T20:03:15.614Z,11.79
2023-01-29T20:05:50.277Z,11.48
2023-01-29T20:08:29.534Z,12.83
2023-01-29T20:11:05.762Z,12.50
2023-01-29T20:13:38.631Z,11.78
2023-01-29T20:16:11.736Z,12.05
2023-01-29T20:18:44.569Z,13.04
2023-01-29T20:21:29.118Z,11.89
2023-01-29T20:24:13.856Z,12.66
2023-01-29T20:26:46.514Z,12.81
2023-01-29T20:32:16.506Z,12.07
2023-01-29T20:34:52.769Z,12.62
2023-01-29T20:37:30.182Z,11.90
2023-01-29T20:40:04.423Z,11.05
2023-01-29T20:42:42.396Z,10.85
2023-01-29T20:45:16.757Z,10.17
2023-01-29T20:47:55.677Z,11.49
2023-01-29T20:50:30.014Z,11.59
2023-01-29T20:56:04.487Z,12.87
2023-01-29T20:58:42.489Z,11.94
2023-01-29T21:01:18.353Z,11.62
2023-01-29T21:03:53.378Z,11.25
2023-01-29T21:06:34.577Z,10.95
2023-01-29T21:09:08.777Z,10.63
2023-01-29T21:11:53.666Z,11.55
2023-01-29T21:14:37.201Z,11.08
2023-01-29T21:17:09.946Z,12.75
2023-01-29T21:19:53.436Z,12.01
2023-01-29T21:22:27.251Z,12.15
2023-01-29T21:25:06.276Z,11.82
2023-01-29T21:27:37.596Z,12.59
2023-01-29T21:30:16.521Z,12.40
2023-01-29T21:32:51.370Z,10.90
2023-01-29T21:35:25.482Z,11.71
2023-01-29T21:38:02.240Z,12.34
2023-01-29T21:40:38.427Z,10.91
2023-01-29T21:43:15.301Z,11.42
2023-01-29T21:45:49.426Z,11.28
2023-01-29T21:48:23.709Z,12.26
2023-01-29T21:51:06.285Z,11.48
2023-01-29T21:53:42.943Z,11.78
2023-01-29T21:56:16.801Z,11.71
2023-01-29T21:59:01.072Z,11.23
2023-01-29T22:01:38.128Z,10.89
2023-01-29T22:04:21.193Z,12.39
2023-01-29T22:06:57.394Z,12.87
2023-01-29T22:09:33.306Z,13.03
2023-01-29T22:12:04.190Z,12.46
2023-01-29T22:14:35.538Z,12.61
2023-01-29T22:17:10.626Z,11.37
2023-01-29T22:19:42.723Z,11.74
2023-01-29T22:22:16.012Z,11.22
2023-01-29T22:24:46.920Z,10.51
2023-01-29T22:27:17.653Z,10.57
2023-01-29T22:29:48.571Z,11.25
2023-01-29T22:32:19.423Z,11.24
2023-01-29T22:34:50.011Z,11.81
2023-01-29T22:37:21.876Z,11.91
2023-01-29T22:39:53.183Z,11.81
2023-01-29T22:42:24.146Z,12.34
2023-01-29T22:44:56.051Z,10.93
2023-01-29T22:47:26.632Z,13.06
2023-01-29T22:49:57.388Z,12.44
2023-01-29T22:52:42.965Z,11.56
2023-01-29T22:55:14.742Z,11.92
2023-01-29T22:57:46.868Z,12.20
2023-01-29T23:00:20.168Z,11.70
2023-01-29T23:02:51.720Z,11.21
2023-01-29T23:05:22.741Z,11.87
2023-01-29T23:07:53.840Z,10.88
2023-01-29T23:10:28.072Z,10.91
2023-01-29T23:12:58.686Z,11.09
2023-01-29T23:15:29.278Z,11.40
2023-01-29T23:18:00.360Z,10.92
2023-01-29T23:20:31.551Z,12.32
2023-01-29T23:23:02.387Z,10.94
2023-01-29T23:25:53.820Z,10.55
2023-01-29T23:28:25.796Z,12.18
2023-01-29T23:30:56.883Z,11.75
2023-01-29T23:33:30.613Z,11.50
2023-01-29T23:36:01.313Z,11.89
2023-01-29T23:38:34.949Z,11.32
2023-01-29T23:41:05.836Z,11.70
2023-01-29T23:43:36.870Z,11.60
2023-01-29T23:46:07.951Z,11.27
2023-01-29T23:48:40.021Z,12.10
2023-01-29T23:51:11.318Z,11.75
2023-01-29T23:53:42.403Z,10.50
2023-01-29T23:56:13.309Z,10.79
2023-01-29T23:58:45.004Z,11.79
